createdAt,value
2023-05-10T00:01:59.467Z,3.10
2023-05-10T00:04:46.487Z,3.47
2023-05-10T00:07:33.529Z,3.03
2023-05-10T00:10:20.493Z,3.00
2023-05-10T00:13:07.769Z,3.10
2023-05-10T00:15:54.890Z,3.00
2023-05-10T00:18:41.951Z,3.60
2023-05-10T00:21:29.388Z,3.17
2023-05-10T00:24:16.443Z,2.80
2023-05-10T00:27:04.958Z,2.87
2023-05-10T00:29:51.983Z,2.90
2023-05-10T00:32:39.059Z,3.00
2023-05-10T00:35:26.990Z,3.40
2023-05-10T00:38:14.350Z,2.90
2023-05-10T00:41:02.062Z,3.20
2023-05-10T00:43:51.938Z,3.50
2023-05-10T00:46:38.970Z,3.50
2023-05-10T00:49:26.257Z,3.47
2023-05-10T00:52:13.724Z,3.67
2023-05-10T00:55:01.196Z,3.13
2023-05-10T00:57:48.926Z,3.40
2023-05-10T01:00:38.530Z,3.03
2023-05-10T01:03:26.574Z,4.10
2023-05-10T01:06:14.035Z,3.60
2023-05-10T01:09:01.087Z,3.80
2023-05-10T01:11:49.476Z,3.60
2023-05-10T01:14:37.339Z,3.73
2023-05-10T01:17:25.464Z,3.60
2023-05-10T01:20:13.592Z,3.70
2023-05-10T01:23:28.341Z,3.80
2023-05-10T01:26:35.250Z,3.30
2023-05-10T01:29:46.891Z,3.50
2023-05-10T01:33:07.201Z,3.93
2023-05-10T01:35:59.355Z,4.10
2023-05-10T01:38:51.582Z,4.60
2023-05-10T01:41:58.425Z,3.77
2023-05-10T01:44:59.197Z,3.70
2023-05-10T01:47:53.678Z,3.77
2023-05-10T01:50:44.420Z,3.93
2023-05-10T01:53:34.371Z,3.20
2023-05-10T01:56:25.085Z,3.60
2023-05-10T01:59:19.298Z,3.00
2023-05-10T02:02:07.859Z,3.00
2023-05-10T02:04:56.555Z,2.97
2023-05-10T02:07:45.311Z,2.90
2023-05-10T02:10:34.432Z,2.80
2023-05-10T02:13:24.083Z,3.27
2023-05-10T02:16:13.294Z,3.97
2023-05-10T02:19:02.997Z,3.73
2023-05-10T02:21:52.175Z,3.50
2023-05-10T02:24:40.554Z,3.33
2023-05-10T02:27:29.029Z,3.73
2023-05-10T02:30:17.192Z,3.30
2023-05-10T02:33:06.587Z,3.00
2023-05-10T02:35:54.342Z,3.00
2023-05-10T02:38:41.980Z,3.40
2023-05-10T02:41:31.889Z,3.40
2023-05-10T02:44:21.037Z,2.90
2023-05-10T02:47:08.215Z,2.50
2023-05-10T02:49:55.603Z,2.43
2023-05-10T02:52:53.050Z,2.63
2023-05-10T02:55:43.218Z,2.37
2023-05-10T02:58:30.286Z,2.07
2023-05-10T03:01:17.492Z,2.30
2023-05-10T03:04:05.405Z,1.97
2023-05-10T03:06:53.029Z,1.90
2023-05-10T03:09:40.970Z,2.10
2023-05-10T03:12:55.921Z,1.90
2023-05-10T03:16:00.429Z,2.00
2023-05-10T03:19:17.328Z,1.70
2023-05-10T03:22:11.317Z,1.40
2023-05-10T03:25:06.533Z,1.37
2023-05-10T03:27:55.390Z,1.40
2023-05-10T03:30:44.625Z,1.20
2023-05-10T03:33:33.460Z,1.47
2023-05-10T03:36:20.858Z,1.33
2023-05-10T03:39:08.013Z,1.23
2023-05-10T03:41:55.015Z,1.30
2023-05-10T03:44:42.104Z,1.17
2023-05-10T03:47:30.780Z,1.30
2023-05-10T03:50:19.695Z,1.30
2023-05-10T03:53:06.960Z,1.20
2023-05-10T03:55:54.069Z,1.30
2023-05-10T03:58:41.160Z,1.10
2023-05-10T04:01:28.133Z,1.13
2023-05-10T04:04:15.232Z,1.00
2023-05-10T04:07:02.296Z,1.13
2023-05-10T04:09:49.350Z,1.10
2023-05-10T04:12:36.417Z,1.30
2023-05-10T04:15:23.474Z,1.07
2023-05-10T04:18:11.132Z,1.03
2023-05-10T04:20:58.369Z,0.90
2023-05-10T04:23:45.366Z,1.10
2023-05-10T04:26:32.396Z,1.10
2023-05-10T04:29:19.478Z,1.10
2023-05-10T04:32:06.519Z,1.00
2023-05-10T04:34:54.077Z,0.90
2023-05-10T04:37:41.085Z,0.77
2023-05-10T04:40:28.132Z,0.90
2023-05-10T04:43:15.116Z,0.60
2023-05-10T04:46:02.150Z,0.50
2023-05-10T04:48:49.159Z,0.50
2023-05-10T04:51:36.213Z,0.70
2023-05-10T04:54:23.196Z,0.70
2023-05-10T04:57:10.201Z,0.80
2023-05-10T04:59:57.208Z,0.80
2023-05-10T05:02:46.366Z,0.80
2023-05-10T05:05:33.463Z,0.70
2023-05-10T05:08:20.434Z,0.87
2023-05-10T05:11:07.431Z,0.80
2023-05-10T05:13:54.527Z,0.80
2023-05-10T05:16:41.689Z,0.70
2023-05-10T05:19:28.662Z,0.60
2023-05-10T05:22:16.499Z,0.73
2023-05-10T05:25:04.612Z,0.60
2023-05-10T05:27:51.708Z,0.70
2023-05-10T05:30:38.717Z,0.70
2023-05-10T05:33:25.696Z,0.57
2023-05-10T05:36:12.812Z,0.70
2023-05-10T05:38:59.820Z,0.60
2023-05-10T05:41:47.601Z,0.70
2023-05-10T05:44:34.605Z,0.60
2023-05-10T05:47:21.869Z,0.60
2023-05-10T05:50:09.376Z,0.70
2023-05-10T05:52:57.532Z,0.70
2023-05-10T05:55:55.157Z,0.50
2023-05-10T05:58:42.482Z,0.70
2023-05-10T06:01:29.475Z,0.60
2023-05-10T06:04:17.028Z,0.60
2023-05-10T06:07:04.125Z,0.57
2023-05-10T06:09:51.153Z,0.50
2023-05-10T06:12:38.314Z,0.40
2023-05-10T06:15:25.625Z,0.23
2023-05-10T06:18:12.634Z,0.40
2023-05-10T06:20:59.625Z,0.43
2023-05-10T06:23:46.624Z,0.60
2023-05-10T06:26:34.226Z,0.60
2023-05-10T06:29:21.271Z,0.70
2023-05-10T06:32:08.256Z,0.60
2023-05-10T06:34:55.281Z,0.60
2023-05-10T06:37:42.282Z,0.53
2023-05-10T06:40:29.337Z,0.70
2023-05-10T06:43:16.446Z,0.47
2023-05-10T06:46:03.532Z,0.30
2023-05-10T06:48:50.530Z,0.33
2023-05-10T06:51:37.570Z,0.50
2023-05-10T06:54:24.634Z,0.50
2023-05-10T06:57:23.215Z,0.50
2023-05-10T07:00:18.843Z,0.40
2023-05-10T07:03:06.224Z,0.50
2023-05-10T07:05:53.217Z,0.50
2023-05-10T07:08:40.519Z,0.30
2023-05-10T07:11:27.760Z,0.50
2023-05-10T07:14:14.748Z,0.40
2023-05-10T07:17:01.793Z,0.43
2023-05-10T07:19:48.816Z,0.50
2023-05-10T07:22:35.809Z,0.40
2023-05-10T07:25:22.773Z,0.40
2023-05-10T07:28:09.754Z,0.40
2023-05-10T07:30:56.943Z,0.60
2023-05-10T07:33:43.992Z,0.60
2023-05-10T07:36:31.046Z,0.57
2023-05-10T07:39:26.616Z,0.50
2023-05-10T07:42:14.327Z,0.47
2023-05-10T07:45:01.314Z,0.40
2023-05-10T07:47:48.415Z,0.43
2023-05-10T07:50:35.413Z,0.67
2023-05-10T07:53:22.398Z,0.40
2023-05-10T07:56:30.650Z,0.50
2023-05-10T07:59:18.608Z,0.30
2023-05-10T08:02:05.933Z,0.33
2023-05-10T08:04:53.737Z,0.40
2023-05-10T08:07:40.765Z,0.40
2023-05-10T08:10:27.730Z,0.40
2023-05-10T08:13:14.669Z,0.33
2023-05-10T08:16:01.705Z,0.70
2023-05-10T08:18:50.112Z,0.40
2023-05-10T08:21:37.195Z,0.70
2023-05-10T08:24:24.276Z,0.70
2023-05-10T08:27:11.250Z,0.50
2023-05-10T08:29:58.222Z,0.50
2023-05-10T08:32:45.224Z,0.40
2023-05-10T08:35:32.657Z,0.40
2023-05-10T08:38:19.726Z,0.60
2023-05-10T08:41:07.377Z,0.60
2023-05-10T08:43:55.394Z,0.70
2023-05-10T08:46:45.271Z,0.60
2023-05-10T08:49:33.667Z,0.50
2023-05-10T08:52:22.530Z,0.60
2023-05-10T08:55:09.776Z,0.50
2023-05-10T08:57:57.112Z,0.60
2023-05-10T09:00:44.383Z,0.50
2023-05-10T09:03:32.229Z,0.40
2023-05-10T09:06:19.775Z,0.57
2023-05-10T09:09:07.237Z,0.50
2023-05-10T09:11:54.804Z,0.30
2023-05-10T09:14:42.388Z,0.37
2023-05-10T09:17:30.795Z,0.47
2023-05-10T09:20:21.370Z,0.40
2023-05-10T09:23:08.761Z,0.37
2023-05-10T09:26:06.279Z,0.30
2023-05-10T09:28:55.433Z,0.40
2023-05-10T09:31:52.193Z,0.50
2023-05-10T09:34:41.323Z,0.50
2023-05-10T09:37:31.250Z,0.50
2023-05-10T09:40:20.881Z,0.50
2023-05-10T09:43:08.577Z,0.40
2023-05-10T09:45:55.882Z,0.30
2023-05-10T09:48:48.559Z,0.27
2023-05-10T09:51:36.932Z,0.40
2023-05-10T09:54:25.151Z,0.40
2023-05-10T09:57:23.403Z,0.40
2023-05-10T10:00:14.102Z,0.30
2023-05-10T10:03:01.366Z,0.33
2023-05-10T10:05:49.502Z,0.47
2023-05-10T10:08:36.812Z,0.50
2023-05-10T10:11:24.649Z,0.40
2023-05-10T10:14:13.469Z,0.50
2023-05-10T10:19:52.041Z,0.40
2023-05-10T10:22:39.170Z,0.43
2023-05-10T10:25:26.668Z,0.40
2023-05-10T10:28:52.744Z,0.50
2023-05-10T10:31:59.575Z,0.50
2023-05-10T10:34:47.090Z,0.50
2023-05-10T10:37:48.015Z,0.40
2023-05-10T10:40:35.441Z,0.50
2023-05-10T10:43:27.714Z,0.50
2023-05-10T10:46:17.941Z,0.57
2023-05-10T10:49:11.397Z,0.50
2023-05-10T10:52:22.907Z,0.60
2023-05-10T10:55:19.388Z,0.40
2023-05-10T10:58:08.684Z,0.47
2023-05-10T11:01:17.355Z,0.40
2023-05-10T11:04:04.392Z,0.57
2023-05-10T11:06:51.441Z,0.40
2023-05-10T11:09:41.480Z,0.30
2023-05-10T11:12:28.445Z,0.63
2023-05-10T11:15:15.570Z,0.40
2023-05-10T11:18:19.843Z,0.67
2023-05-10T11:21:11.467Z,0.50
2023-05-10T11:24:00.164Z,0.43
2023-05-10T11:26:47.313Z,0.50
2023-05-10T11:29:34.271Z,0.47
2023-05-10T11:32:21.614Z,0.60
2023-05-10T11:35:12.627Z,0.47
2023-05-10T11:37:59.578Z,0.60
2023-05-10T11:40:47.378Z,0.60
2023-05-10T11:43:34.465Z,0.60
2023-05-10T11:46:23.779Z,0.40
2023-05-10T11:49:11.674Z,0.60
2023-05-10T11:52:09.054Z,0.50
2023-05-10T11:54:56.336Z,0.30
2023-05-10T11:57:45.867Z,0.60
2023-05-10T12:00:33.385Z,0.57
2023-05-10T12:03:20.654Z,0.60
2023-05-10T12:06:08.376Z,0.60
2023-05-10T12:08:55.807Z,0.60
2023-05-10T12:11:44.199Z,0.60
2023-05-10T12:14:36.703Z,0.60
2023-05-10T12:17:28.724Z,0.50
2023-05-10T12:20:23.892Z,0.43
2023-05-10T12:23:13.972Z,0.60
2023-05-10T12:26:05.290Z,0.60
2023-05-10T12:28:52.230Z,0.67
2023-05-10T12:31:58.714Z,0.50
2023-05-10T12:34:47.874Z,0.70
2023-05-10T12:37:39.735Z,1.00
2023-05-10T12:40:26.876Z,0.70
2023-05-10T12:43:13.877Z,0.50
2023-05-10T12:46:12.613Z,0.50
2023-05-10T12:49:08.523Z,0.40
2023-05-10T12:51:56.267Z,0.50
2023-05-10T12:54:43.382Z,0.60
2023-05-10T12:57:30.379Z,0.60
2023-05-10T13:00:17.993Z,0.87
2023-05-10T13:03:08.984Z,0.70
2023-05-10T13:05:56.071Z,0.50
2023-05-10T13:08:43.071Z,0.50
2023-05-10T13:11:30.077Z,0.47
2023-05-10T13:14:17.074Z,0.50
2023-05-10T13:17:04.153Z,0.77
2023-05-10T13:19:51.155Z,0.70
2023-05-10T13:22:40.516Z,0.60
2023-05-10T13:25:27.862Z,0.60
2023-05-10T13:28:14.830Z,0.60
2023-05-10T13:31:01.888Z,0.60
2023-05-10T13:33:48.852Z,0.70
2023-05-10T13:36:35.868Z,0.70
2023-05-10T13:39:23.183Z,0.60
2023-05-10T13:42:10.208Z,0.80
2023-05-10T13:44:57.228Z,0.70
2023-05-10T13:47:44.330Z,0.93
2023-05-10T13:50:31.371Z,0.70
2023-05-10T13:53:18.386Z,0.70
2023-05-10T13:56:05.545Z,0.70
2023-05-10T13:58:52.516Z,0.70
2023-05-10T14:01:39.590Z,0.77
2023-05-10T14:04:26.662Z,0.80
2023-05-10T14:07:13.627Z,0.80
2023-05-10T14:10:01.092Z,0.73
2023-05-10T14:12:48.162Z,0.90
2023-05-10T14:15:35.140Z,0.93
2023-05-10T14:18:22.196Z,0.90
2023-05-10T14:21:09.290Z,0.73
2023-05-10T14:23:56.701Z,0.93
2023-05-10T14:26:43.655Z,1.00
2023-05-10T14:29:30.957Z,0.70
2023-05-10T14:32:18.245Z,0.70
2023-05-10T14:35:06.947Z,0.73
2023-05-10T14:37:54.234Z,0.87
2023-05-10T14:40:41.433Z,0.73
2023-05-10T14:43:29.069Z,0.77
2023-05-10T14:46:16.927Z,1.30
2023-05-10T14:49:03.937Z,1.20
2023-05-10T14:51:51.082Z,0.90
2023-05-10T14:54:38.012Z,1.00
2023-05-10T14:57:24.980Z,1.00
2023-05-10T15:00:12.609Z,0.90
2023-05-10T15:03:00.261Z,1.20
2023-05-10T15:05:47.594Z,1.17
2023-05-10T15:08:34.611Z,0.80
2023-05-10T15:11:21.628Z,0.80
2023-05-10T15:14:08.657Z,0.70
2023-05-10T15:16:56.111Z,0.70
2023-05-10T15:19:43.862Z,0.70
2023-05-10T15:22:34.163Z,0.70
2023-05-10T15:25:21.659Z,0.80
2023-05-10T15:28:08.673Z,0.70
2023-05-10T15:30:56.383Z,0.60
2023-05-10T15:33:43.368Z,0.70
2023-05-10T15:36:30.400Z,0.60
2023-05-10T15:39:17.357Z,0.77
2023-05-10T15:42:05.029Z,0.70
2023-05-10T15:44:52.045Z,0.67
2023-05-10T15:47:40.535Z,0.70
2023-05-10T15:50:28.038Z,0.80
2023-05-10T15:53:15.001Z,0.60
2023-05-10T15:56:01.971Z,0.80
2023-05-10T15:58:48.956Z,0.70
2023-05-10T16:01:36.137Z,0.60
2023-05-10T16:04:23.547Z,0.70
2023-05-10T16:07:10.671Z,0.93
2023-05-10T16:09:57.695Z,0.60
2023-05-10T16:12:44.769Z,0.70
2023-05-10T16:15:31.814Z,0.90
2023-05-10T16:18:18.957Z,0.80
2023-05-10T16:21:06.313Z,0.80
2023-05-10T16:23:53.332Z,1.00
2023-05-10T16:26:41.185Z,0.93
2023-05-10T16:29:28.236Z,1.00
2023-05-10T16:32:15.252Z,0.90
2023-05-10T16:35:02.261Z,0.83
2023-05-10T16:37:50.071Z,0.90
2023-05-10T16:40:37.024Z,0.80
2023-05-10T16:43:25.867Z,0.90
2023-05-10T16:46:13.246Z,0.93
2023-05-10T16:49:00.286Z,0.93
2023-05-10T16:51:47.265Z,0.70
2023-05-10T16:54:34.305Z,1.10
2023-05-10T16:57:21.481Z,0.90
2023-05-10T17:00:09.827Z,1.07
2023-05-10T17:02:57.105Z,0.90
2023-05-10T17:05:44.222Z,0.90
2023-05-10T17:08:31.233Z,0.77
2023-05-10T17:11:19.923Z,0.70
2023-05-10T17:14:07.325Z,0.90
2023-05-10T17:16:57.409Z,0.90
2023-05-10T17:19:47.594Z,1.00
2023-05-10T17:22:34.613Z,0.90
2023-05-10T17:25:21.734Z,0.77
2023-05-10T17:28:08.775Z,1.47
2023-05-10T17:30:57.673Z,1.23
2023-05-10T17:33:44.642Z,1.00
2023-05-10T17:36:32.406Z,0.90
2023-05-10T17:39:19.584Z,0.97
2023-05-10T17:42:07.306Z,1.17
2023-05-10T17:44:54.256Z,1.20
2023-05-10T17:47:41.326Z,1.50
2023-05-10T17:50:28.310Z,1.47
2023-05-10T17:53:15.282Z,1.10
2023-05-10T17:56:02.325Z,1.10
2023-05-10T17:58:50.469Z,1.00
2023-05-10T18:01:37.606Z,0.90
2023-05-10T18:04:25.898Z,1.10
2023-05-10T18:07:13.030Z,0.70
2023-05-10T18:10:01.075Z,0.70
2023-05-10T18:12:50.189Z,0.80
2023-05-10T18:15:37.478Z,0.60
2023-05-10T18:18:25.311Z,0.60
2023-05-10T18:21:12.381Z,0.50
2023-05-10T18:23:59.445Z,0.63
2023-05-10T18:26:46.447Z,0.60
2023-05-10T18:29:33.420Z,0.63
2023-05-10T18:32:20.416Z,0.50
2023-05-10T18:35:08.122Z,0.73
2023-05-10T18:37:56.094Z,0.70
2023-05-10T18:40:43.152Z,0.60
2023-05-10T18:43:30.131Z,0.50
2023-05-10T18:46:17.147Z,0.60
2023-05-10T18:49:04.105Z,0.60
2023-05-10T18:51:51.292Z,0.60
2023-05-10T18:54:38.921Z,0.67
2023-05-10T18:57:25.990Z,0.60
2023-05-10T19:00:13.535Z,0.80
2023-05-10T19:03:00.686Z,0.70
2023-05-10T19:05:48.897Z,0.70
2023-05-10T19:08:35.878Z,0.70
2023-05-10T19:11:22.928Z,0.67
2023-05-10T19:14:10.141Z,0.60
2023-05-10T19:16:57.224Z,0.70
2023-05-10T19:19:45.119Z,1.00
2023-05-10T19:22:47.317Z,0.73
2023-05-10T19:25:39.543Z,0.63
2023-05-10T19:28:26.919Z,0.73
2023-05-10T19:31:13.968Z,0.80
2023-05-10T19:34:01.182Z,0.57
2023-05-10T19:36:48.167Z,0.80
2023-05-10T19:39:35.177Z,0.87
2023-05-10T19:42:22.169Z,0.73
2023-05-10T19:45:10.056Z,1.00
2023-05-10T19:47:57.717Z,0.60
2023-05-10T19:50:44.813Z,0.90
2023-05-10T19:53:32.356Z,0.80
2023-05-10T19:56:19.511Z,1.00
2023-05-10T19:59:07.758Z,0.90
2023-05-10T20:01:54.841Z,0.87
2023-05-10T20:04:41.809Z,0.73
2023-05-10T20:07:28.894Z,0.80
2023-05-10T20:10:17.424Z,0.70
2023-05-10T20:13:04.495Z,0.90
2023-05-10T20:15:55.454Z,0.80
2023-05-10T20:18:42.518Z,0.90
2023-05-10T20:21:29.552Z,0.90
2023-05-10T20:24:16.545Z,1.13
2023-05-10T20:27:04.521Z,0.80
2023-05-10T20:29:51.694Z,1.00
2023-05-10T20:32:39.108Z,1.03
2023-05-10T20:35:26.162Z,1.00
2023-05-10T20:38:13.182Z,0.90
2023-05-10T20:41:00.244Z,1.17
2023-05-10T20:43:47.357Z,1.30
2023-05-10T20:46:34.387Z,1.00
2023-05-10T20:49:21.845Z,1.20
2023-05-10T20:52:09.514Z,1.20
2023-05-10T20:54:56.504Z,1.00
2023-05-10T20:57:45.166Z,1.30
2023-05-10T21:00:32.217Z,1.43
2023-05-10T21:03:19.220Z,1.53
2023-05-10T21:06:06.251Z,1.30
2023-05-10T21:08:53.206Z,1.40
2023-05-10T21:11:40.289Z,1.20
2023-05-10T21:14:27.230Z,1.20
2023-05-10T21:17:14.596Z,1.20
2023-05-10T21:20:01.571Z,1.27
2023-05-10T21:22:48.732Z,1.00
2023-05-10T21:25:36.328Z,1.10
2023-05-10T21:28:23.317Z,1.20
2023-05-10T21:31:10.436Z,1.67
2023-05-10T21:33:57.897Z,1.50
2023-05-10T21:36:44.882Z,1.50
2023-05-10T21:39:31.898Z,1.40
2023-05-10T21:42:19.080Z,1.47
2023-05-10T21:45:07.232Z,1.80
2023-05-10T21:47:54.268Z,2.37
2023-05-10T21:50:41.267Z,2.03
2023-05-10T21:53:28.740Z,1.90
2023-05-10T21:56:15.721Z,2.00
2023-05-10T21:59:03.475Z,2.10
2023-05-10T22:01:50.593Z,1.80
2023-05-10T22:04:37.580Z,2.17
2023-05-10T22:07:24.574Z,2.10
2023-05-10T22:10:11.576Z,2.07
2023-05-10T22:12:59.959Z,2.23
2023-05-10T22:15:46.939Z,2.00
2023-05-10T22:18:34.009Z,2.20
2023-05-10T22:21:21.394Z,1.90
2023-05-10T22:24:08.412Z,1.77
2023-05-10T22:26:56.148Z,1.90
2023-05-10T22:29:43.139Z,1.80
2023-05-10T22:32:31.546Z,1.80
2023-05-10T22:35:18.584Z,1.80
2023-05-10T22:38:05.592Z,1.90
2023-05-10T22:40:52.548Z,1.83
2023-05-10T22:43:39.518Z,1.43
2023-05-10T22:46:26.593Z,1.50
2023-05-10T22:49:13.775Z,1.60
2023-05-10T22:52:01.388Z,1.57
2023-05-10T22:54:48.431Z,1.30
2023-05-10T22:57:36.082Z,1.37
2023-05-10T23:00:23.207Z,1.20
2023-05-10T23:03:10.193Z,1.20
2023-05-10T23:05:57.163Z,1.30
2023-05-10T23:08:44.223Z,1.23
2023-05-10T23:11:31.206Z,1.10
2023-05-10T23:14:18.243Z,1.40
2023-05-10T23:17:05.389Z,1.20
2023-05-10T23:19:52.498Z,1.00
2023-05-10T23:22:40.105Z,1.30
2023-05-10T23:25:27.087Z,1.20
2023-05-10T23:28:14.120Z,1.10
2023-05-10T23:31:01.151Z,1.40
2023-05-10T23:33:48.478Z,1.40
2023-05-10T23:36:35.429Z,1.70
2023-05-10T23:39:22.389Z,1.20
2023-05-10T23:42:09.343Z,1.53
2023-05-10T23:44:56.521Z,1.50
2023-05-10T23:47:43.571Z,1.50
2023-05-10T23:50:30.760Z,1.57
2023-05-10T23:53:17.911Z,1.67
2023-05-10T23:56:05.113Z,1.57
2023-05-10T23:58:52.206Z,1.40
